Página principal
METAR-TAF:

METAR-TAF

Aeroportos :

Grand Rapids, Michigan, Estados Unidos

latitude: 42-52-51N, longitude: 085-31-22W, altura: 242 m

Observação actual do tempo

O boletim foi feito há 27 minutos, às 20:53 UTC
Vento 10 kt de oeste
Temperatura 33°C
Humidade 39%
Pressão 1012 hPa
Visibilidade: 16.1 km
Poucas nuvensa uma altura de 6500 ft
Nuvens dispersasa uma altura de 25000 ft

METAR: KGRR 272053Z 27010KT 10SM FEW065 SCT250 33/17 A2987 RMK AO2 SLP111 CB DSNT NE-E MOV SE T03330172 56006

Hora: 17:20 (21:20 UTC)

Previsão

O boletim foi feito há 3 horas e 36 minutos, às 17:44 UTC
Previsão válida de 27 às 18 UTC a 28 às 18 UTC
Vento 9 kt de oeste
Visibilidade: 10 km
Nuvens dispersasa uma altura de 5000 ft
A partir de 28 às 0200 UTC
Vento 3 kt com direcção variável
Visibilidade: 10 km
Nuvens dispersasa uma altura de 25000 ft

TAF: KGRR 271744Z 2718/2818 27009KT P6SM SCT050 FM280200 VRB03KT P6SM SCT250

Observações e previsões do tempo de mais de 4000 aeroportos (mensagens METAR e TAF).

As estações disponíveis são os pontos amarelos e vermelhos sobre o mapa.

Mova o rato sobre o mapa para ver o nome da estação.

Depois clique no ponto para visualizar as observações e previsões meteorológicas.

Para alterar o mapa : clique nos botões verdes com uma cruz preta para aumentar o zoom; no botão verde com uma pitada de zoom; ou nas setas verdes para mapas adjacentes.


METAR-TAF: